Time;durP1;ratioP1;P1;durP2;ratioP2;P2;SDS_P1;SDS_P2;PMS_P1;PMS_P2;Temp;Humidity;BMP_temperature;BMP_pressure;BME280_temperature;BME280_humidity;BME280_pressure;Samples;Min_cycle;Max_cycle;Signal;HPM_P1;HPM_P2
2022/09/01 00:01:46;;;;;;;2.03;1.10;;;17.10;98.90;;;;;;5072877;28;20448;-51
2022/09/01 00:04:16;;;;;;;3.40;1.10;;;17.10;98.90;;;;;;5072453;28;20534;-51
2022/09/01 00:06:43;;;;;;;1.50;1.10;;;17.20;98.90;;;;;;5071614;28;20968;-51
2022/09/01 00:09:12;;;;;;;3.40;1.20;;;17.10;98.80;;;;;;5072511;28;20794;-51
2022/09/01 00:11:40;;;;;;;3.60;1.60;;;16.70;98.60;;;;;;5073156;28;20432;-51
2022/09/01 00:14:08;;;;;;;1.87;1.00;;;17.10;98.70;;;;;;5072735;28;20551;-51
2022/09/01 00:16:35;;;;;;;2.40;1.97;;;17.10;98.80;;;;;;5072963;28;20439;-51
2022/09/01 00:19:04;;;;;;;2.40;1.30;;;17.20;98.90;;;;;;5072335;28;20947;-53
2022/09/01 00:21:33;;;;;;;2.37;0.80;;;17.10;98.90;;;;;;5072624;28;20443;-52
2022/09/01 00:24:00;;;;;;;2.73;1.20;;;17.20;98.90;;;;;;5072417;28;20476;-50
2022/09/01 00:26:27;;;;;;;2.10;1.30;;;17.10;98.80;;;;;;5072564;28;20768;-51
2022/09/01 00:28:54;;;;;;;4.40;1.10;;;17.10;98.80;;;;;;5070777;28;20486;-51
2022/09/01 00:31:21;;;;;;;1.90;0.80;;;17.10;98.80;;;;;;5072192;28;20430;-50
2022/09/01 00:33:49;;;;;;;2.20;1.00;;;17.10;98.80;;;;;;5071123;28;20467;-51
2022/09/01 00:36:18;;;;;;;2.90;0.90;;;17.00;98.80;;;;;;5071169;28;20817;-50
2022/09/01 00:38:45;;;;;;;2.70;1.13;;;17.10;98.90;;;;;;5069794;28;20941;-51
2022/09/01 00:41:14;;;;;;;2.80;0.80;;;17.00;98.80;;;;;;5072562;28;20445;-52
2022/09/01 00:43:45;;;;;;;5.23;1.13;;;17.00;98.90;;;;;;5070777;28;20472;-53
2022/09/01 00:46:15;;;;;;;3.10;2.80;;;17.10;98.90;;;;;;5071014;28;20542;-50
2022/09/01 00:48:42;;;;;;;2.20;1.10;;;16.90;98.90;;;;;;5071935;28;20438;-53
2022/09/01 00:51:10;;;;;;;1.77;0.83;;;16.80;99.00;;;;;;5070811;28;20477;-51
2022/09/01 00:53:42;;;;;;;2.10;1.20;;;16.90;99.10;;;;;;5070805;28;20470;-52
2022/09/01 00:56:10;;;;;;;1.70;0.90;;;16.80;99.20;;;;;;5072054;28;20427;-52
2022/09/01 00:58:37;;;;;;;3.83;1.20;;;16.70;99.20;;;;;;5071777;28;20848;-49
2022/09/01 01:01:05;;;;;;;3.43;1.40;;;16.80;99.30;;;;;;5071932;28;20434;-51
2022/09/01 01:03:31;;;;;;;2.47;1.30;;;16.80;99.30;;;;;;5072101;28;20455;-51
2022/09/01 01:06:02;;;;;;;3.20;1.27;;;16.40;99.20;;;;;;5070673;28;20458;-51
2022/09/01 01:08:32;;;;;;;3.40;1.30;;;17.20;99.60;;;;;;5070299;28;20972;-50
2022/09/01 01:11:03;;;;;;;2.20;1.17;;;17.00;99.60;;;;;;5070679;28;20817;-50
2022/09/01 01:13:48;;;;;;;3.03;1.27;;;16.70;99.50;;;;;;5071950;28;20444;-51
2022/09/01 01:16:14;;;;;;;3.70;1.67;;;16.40;99.50;;;;;;5071904;28;20475;-49
2022/09/01 01:18:41;;;;;;;3.50;1.63;;;16.80;99.70;;;;;;5070125;28;20546;-51
2022/09/01 01:24:09;;;;;;;2.90;2.30;;;16.90;99.90;;;;;;5070239;28;20462;-51
2022/09/01 01:26:38;;;;;;;2.73;2.10;;;16.60;99.90;;;;;;5070658;28;20458;-50
2022/09/01 01:29:07;;;;;;;2.37;1.53;;;16.50;99.90;;;;;;5070036;28;20445;-51
2022/09/01 01:31:34;;;;;;;2.30;1.47;;;16.60;99.90;;;;;;5071656;28;20786;-50
2022/09/01 01:34:01;;;;;;;3.80;1.73;;;16.60;99.90;;;;;;5070510;28;20502;-51
2022/09/01 01:36:35;;;;;;;2.67;1.30;;;16.50;99.90;;;;;;5070533;28;20454;-50
2022/09/01 01:39:07;;;;;;;4.63;1.30;;;16.30;99.90;;;;;;5069990;28;20972;-51
2022/09/01 01:41:41;;;;;;;6.83;2.27;;;16.50;99.90;;;;;;5070296;28;20460;-50
2022/09/01 01:44:10;;;;;;;2.07;1.43;;;16.30;99.90;;;;;;5070107;28;20476;-51
2022/09/01 01:46:41;;;;;;;2.37;1.33;;;16.30;99.90;;;;;;5070347;28;20867;-49
2022/09/01 01:49:08;;;;;;;2.77;1.37;;;16.20;99.90;;;;;;5071277;28;20965;-51
2022/09/01 01:51:35;;;;;;;3.57;1.50;;;16.30;99.90;;;;;;5073658;28;20447;-52
2022/09/01 01:54:04;;;;;;;4.17;1.60;;;16.20;99.90;;;;;;5074429;28;20481;-51
2022/09/01 01:56:32;;;;;;;5.20;1.30;;;16.40;99.90;;;;;;5074122;28;20445;-50
2022/09/01 01:59:02;;;;;;;2.57;1.20;;;16.50;99.90;;;;;;5073674;28;20855;-52
2022/09/01 02:01:30;;;;;;;2.40;1.50;;;16.10;99.90;;;;;;5074338;28;20545;-51
2022/09/01 02:03:58;;;;;;;5.53;1.87;;;16.50;99.90;;;;;;5074220;28;20512;-51
2022/09/01 02:06:26;;;;;;;2.13;1.17;;;16.20;99.90;;;;;;5075429;28;20921;-50
2022/09/01 02:09:01;;;;;;;3.20;1.30;;;16.20;99.90;;;;;;5073699;28;20447;-50
2022/09/01 02:11:29;;;;;;;2.67;1.47;;;16.20;99.90;;;;;;5073981;28;20450;-51
2022/09/01 02:13:56;;;;;;;3.80;1.33;;;15.80;99.90;;;;;;5073922;28;20476;-51
2022/09/01 02:16:25;;;;;;;1.90;1.10;;;15.90;99.90;;;;;;5073789;28;20488;-51
2022/09/01 02:18:52;;;;;;;1.83;1.33;;;15.80;99.90;;;;;;5073339;28;20448;-52
2022/09/01 02:21:22;;;;;;;3.93;1.40;;;16.00;99.90;;;;;;5075369;28;20472;-52
2022/09/01 02:23:56;;;;;;;2.73;2.20;;;16.00;99.90;;;;;;5074877;28;20971;-50
2022/09/01 02:26:26;;;;;;;4.83;2.23;;;16.30;99.90;;;;;;5074946;28;20549;-52
2022/09/01 02:28:53;;;;;;;4.80;2.63;;;16.30;99.90;;;;;;5073444;28;20816;-51
2022/09/01 02:31:21;;;;;;;3.00;2.33;;;15.90;99.90;;;;;;5073676;28;20443;-51
2022/09/01 02:33:49;;;;;;;4.73;2.33;;;15.80;99.90;;;;;;5073258;28;21027;-51
2022/09/01 02:36:18;;;;;;;2.77;2.00;;;16.00;99.90;;;;;;5073406;28;20456;-51
2022/09/01 02:38:47;;;;;;;3.47;1.80;;;16.10;99.90;;;;;;5074299;28;20421;-51
2022/09/01 02:41:13;;;;;;;2.70;1.97;;;15.70;99.90;;;;;;5074780;28;20525;-52
2022/09/01 02:43:44;;;;;;;3.53;1.70;;;15.70;99.90;;;;;;5073191;28;20878;-52
2022/09/01 02:46:13;;;;;;;3.60;1.70;;;15.40;99.90;;;;;;5074481;28;20920;-52
2022/09/01 02:48:44;;;;;;;3.17;2.03;;;15.50;99.90;;;;;;5072638;28;20863;-52
2022/09/01 02:51:17;;;;;;;3.57;1.90;;;15.50;99.90;;;;;;5073159;28;20485;-53
2022/09/01 02:53:51;;;;;;;2.83;1.50;;;15.20;99.90;;;;;;5072763;28;20466;-51
2022/09/01 02:56:21;;;;;;;4.60;1.63;;;15.50;99.90;;;;;;5073093;28;20454;-52
2022/09/01 02:58:49;;;;;;;4.73;1.20;;;15.30;99.90;;;;;;5072614;28;20453;-49
2022/09/01 03:01:20;;;;;;;6.70;2.10;;;15.40;99.90;;;;;;5072285;28;21100;-51
2022/09/01 03:03:47;;;;;;;2.10;1.20;;;15.10;99.90;;;;;;5073891;28;20466;-51
2022/09/01 03:06:17;;;;;;;3.70;1.50;;;15.20;99.90;;;;;;5072902;28;20445;-51
2022/09/01 03:08:43;;;;;;;2.50;1.50;;;15.30;99.90;;;;;;5073833;28;20525;-50
2022/09/01 03:11:11;;;;;;;2.47;1.60;;;15.10;99.90;;;;;;5072785;28;20458;-52
2022/09/01 03:13:39;;;;;;;2.03;1.20;;;14.90;99.90;;;;;;5072492;28;20466;-51
2022/09/01 03:16:07;;;;;;;2.63;1.70;;;14.90;99.90;;;;;;5072681;28;20456;-51
2022/09/01 03:18:34;;;;;;;4.00;1.30;;;15.10;99.90;;;;;;5072307;28;20438;-51
2022/09/01 03:21:02;;;;;;;3.23;1.60;;;15.00;99.90;;;;;;5072660;28;20481;-51
2022/09/01 03:23:32;;;;;;;4.23;1.90;;;15.30;99.90;;;;;;5072491;28;20469;-51
2022/09/01 03:25:58;;;;;;;2.93;1.93;;;15.30;99.90;;;;;;5072369;28;20458;-51
2022/09/01 03:28:25;;;;;;;3.53;1.90;;;15.00;99.90;;;;;;5072115;28;20450;-51
2022/09/01 03:30:54;;;;;;;4.50;2.20;;;14.90;99.90;;;;;;5073685;28;20437;-49
2022/09/01 03:33:23;;;;;;;6.77;2.77;;;14.40;99.90;;;;;;5072285;28;20465;-51
2022/09/01 03:35:50;;;;;;;4.03;2.43;;;15.20;99.90;;;;;;5072299;28;20457;-51
2022/09/01 03:38:21;;;;;;;4.93;2.10;;;15.30;99.90;;;;;;5072350;28;20446;-51
2022/09/01 03:40:53;;;;;;;3.40;2.17;;;15.10;99.90;;;;;;5071976;28;20999;-52
2022/09/01 03:43:25;;;;;;;5.80;2.53;;;14.60;99.90;;;;;;5072052;28;20840;-49
2022/09/01 03:45:54;;;;;;;4.57;2.40;;;14.70;99.90;;;;;;5071901;28;20800;-50
2022/09/01 03:48:22;;;;;;;5.10;2.80;;;14.70;99.90;;;;;;5071856;28;20449;-50
2022/09/01 03:50:48;;;;;;;4.13;2.93;;;15.00;99.90;;;;;;5071914;28;20822;-50
2022/09/01 03:53:19;;;;;;;3.23;2.10;;;14.80;99.90;;;;;;5073238;28;20457;-51
2022/09/01 03:55:47;;;;;;;4.43;2.20;;;14.60;99.90;;;;;;5071982;28;20446;-50
2022/09/01 03:58:18;;;;;;;4.23;2.43;;;15.20;99.90;;;;;;5071544;28;20446;-51
2022/09/01 04:00:48;;;;;;;5.37;1.90;;;14.40;99.90;;;;;;5071419;28;20469;-51
2022/09/01 04:03:20;;;;;;;3.93;2.17;;;14.50;99.90;;;;;;5071713;28;20473;-51
2022/09/01 04:05:49;;;;;;;2.80;2.00;;;14.10;99.90;;;;;;5071801;28;20461;-51
2022/09/01 04:08:16;;;;;;;5.30;2.17;;;13.90;99.90;;;;;;5071663;28;20861;-51
2022/09/01 04:10:49;;;;;;;3.10;2.10;;;14.30;99.90;;;;;;5071350;28;20450;-51
2022/09/01 04:13:21;;;;;;;2.23;2.03;;;14.50;99.90;;;;;;5071013;28;20462;-52
2022/09/01 04:15:48;;;;;;;2.67;1.80;;;14.20;99.90;;;;;;5072868;28;20960;-50
2022/09/01 04:18:22;;;;;;;3.13;2.17;;;14.30;99.90;;;;;;5071163;28;20444;-50
2022/09/01 04:20:51;;;;;;;2.63;1.90;;;14.30;99.90;;;;;;5071109;28;20992;-51
2022/09/01 04:23:25;;;;;;;4.30;2.30;;;14.30;99.90;;;;;;5071740;28;20568;-49
2022/09/01 04:25:55;;;;;;;3.13;2.20;;;14.20;99.90;;;;;;5071467;28;20543;-49
2022/09/01 04:28:25;;;;;;;4.07;2.50;;;14.00;99.90;;;;;;5071055;28;20440;-50
2022/09/01 04:30:55;;;;;;;4.60;3.20;;;14.10;99.90;;;;;;5071113;28;20508;-49
2022/09/01 04:33:24;;;;;;;5.50;2.67;;;14.10;99.90;;;;;;5071089;28;20480;-51
2022/09/01 04:35:53;;;;;;;3.13;2.57;;;14.20;99.90;;;;;;5071044;28;20449;-49
2022/09/01 04:38:21;;;;;;;5.33;2.60;;;14.20;99.90;;;;;;5070884;28;20448;-49
2022/09/01 04:40:49;;;;;;;5.93;3.13;;;14.20;99.90;;;;;;5070478;28;20519;-50
2022/09/01 04:43:17;;;;;;;5.93;2.80;;;14.00;99.90;;;;;;5070517;28;20884;-50
2022/09/01 04:45:48;;;;;;;3.33;2.70;;;14.20;99.90;;;;;;5070825;28;20496;-50
2022/09/01 04:48:14;;;;;;;6.70;3.70;;;14.00;99.90;;;;;;5070640;28;20454;-50
2022/09/01 04:50:41;;;;;;;5.97;3.73;;;14.20;99.90;;;;;;5070303;28;20463;-49
2022/09/01 04:53:25;;;;;;;8.30;4.10;;;14.60;99.90;;;;;;5070504;28;20984;-50
2022/09/01 04:55:52;;;;;;;6.27;4.00;;;14.10;99.90;;;;;;5070459;28;20498;-49
2022/09/01 04:58:20;;;;;;;10.03;3.33;;;14.10;99.90;;;;;;5070273;28;20446;-49
2022/09/01 05:00:51;;;;;;;6.60;4.50;;;14.30;99.90;;;;;;5070350;28;20461;-51
2022/09/01 05:03:22;;;;;;;9.03;3.57;;;14.00;99.90;;;;;;5070605;28;20907;-49
2022/09/01 05:06:16;;;;;;;4.97;3.43;;;14.30;99.90;;;;;;5070453;28;20471;-49
2022/09/01 05:08:47;;;;;;;5.50;2.77;;;14.50;99.90;;;;;;5069803;28;20818;-49
2022/09/01 05:11:24;;;;;;;7.50;3.10;;;14.20;99.90;;;;;;5070398;28;20556;-49
2022/09/01 05:13:58;;;;;;;7.27;3.60;;;14.20;99.90;;;;;;5070309;28;20462;-50
2022/09/01 05:16:26;;;;;;;5.57;3.10;;;14.20;99.90;;;;;;5070046;28;20457;-50
2022/09/01 05:18:57;;;;;;;5.13;2.97;;;14.10;99.90;;;;;;5069838;28;20982;-49
2022/09/01 05:21:27;;;;;;;4.60;3.43;;;14.20;99.90;;;;;;5069927;28;20484;-50
2022/09/01 05:23:55;;;;;;;4.80;2.70;;;14.10;99.90;;;;;;5071030;28;20516;-50
2022/09/01 05:26:25;;;;;;;4.07;3.00;;;14.20;99.90;;;;;;5069513;28;20481;-49
2022/09/01 05:28:55;;;;;;;6.20;3.30;;;13.80;99.90;;;;;;5070233;28;20510;-50
2022/09/01 05:31:23;;;;;;;5.60;3.10;;;14.50;99.90;;;;;;5070094;28;20457;-49
2022/09/01 05:33:51;;;;;;;5.40;3.00;;;14.20;99.90;;;;;;5069921;28;20475;-51
2022/09/01 05:36:20;;;;;;;4.20;2.90;;;14.00;99.90;;;;;;5069535;28;20456;-52
2022/09/01 05:38:49;;;;;;;3.20;2.37;;;14.70;99.90;;;;;;5068378;28;20526;-49
2022/09/01 05:41:19;;;;;;;5.93;2.50;;;14.80;99.90;;;;;;5069462;28;20500;-49
2022/09/01 05:43:48;;;;;;;5.03;2.60;;;14.60;99.90;;;;;;5069835;28;20511;-50
2022/09/01 05:46:17;;;;;;;3.97;2.47;;;14.80;99.90;;;;;;5069185;28;20655;-50
2022/09/01 05:48:44;;;;;;;3.60;2.57;;;14.90;99.90;;;;;;5068935;28;20937;-50
2022/09/01 05:51:15;;;;;;;5.57;2.50;;;15.20;99.90;;;;;;5070007;28;20465;-51
2022/09/01 05:53:42;;;;;;;6.43;2.93;;;15.10;99.90;;;;;;5069869;28;20465;-51
2022/09/01 05:56:12;;;;;;;10.37;4.63;;;15.20;99.90;;;;;;5069088;28;20449;-50
2022/09/01 05:58:40;;;;;;;3.10;2.30;;;15.60;99.90;;;;;;5068992;28;20496;-50
2022/09/01 06:01:09;;;;;;;3.50;2.50;;;15.10;99.90;;;;;;5070516;28;20504;-49
2022/09/01 06:03:36;;;;;;;6.43;3.23;;;15.40;99.90;;;;;;5069956;28;20483;-49
2022/09/01 06:06:07;;;;;;;7.17;2.20;;;15.50;99.90;;;;;;5069716;28;20457;-49
2022/09/01 06:08:37;;;;;;;3.17;2.77;;;15.50;99.90;;;;;;5069370;28;20448;-49
2022/09/01 06:11:11;;;;;;;6.73;2.93;;;15.60;99.90;;;;;;5069790;28;20542;-50
2022/09/01 06:13:40;;;;;;;6.63;3.30;;;15.70;99.90;;;;;;5069967;28;20559;-49
2022/09/01 06:16:08;;;;;;;4.70;3.17;;;16.20;99.90;;;;;;5070457;28;20814;-49
2022/09/01 06:18:35;;;;;;;5.43;3.23;;;16.00;99.90;;;;;;5070119;28;20457;-50
2022/09/01 06:21:04;;;;;;;3.50;2.40;;;16.20;99.90;;;;;;5069805;28;20479;-50
2022/09/01 06:23:32;;;;;;;6.43;2.80;;;16.30;99.90;;;;;;5069430;28;20482;-50
2022/09/01 06:26:00;;;;;;;4.40;3.20;;;16.30;99.90;;;;;;5070360;28;20824;-50
2022/09/01 06:28:29;;;;;;;3.80;2.87;;;16.80;99.90;;;;;;5069329;28;20477;-49
2022/09/01 06:30:56;;;;;;;5.17;2.10;;;16.80;99.90;;;;;;5069588;28;20448;-52
2022/09/01 06:33:24;;;;;;;4.60;2.17;;;16.50;99.90;;;;;;5069483;28;20988;-49
2022/09/01 06:35:54;;;;;;;10.97;3.67;;;16.50;99.90;;;;;;5069403;28;20451;-50
2022/09/01 06:38:23;;;;;;;2.83;1.73;;;16.60;99.90;;;;;;5071707;28;20445;-50
2022/09/01 06:40:58;;;;;;;3.97;2.80;;;16.50;99.90;;;;;;5072777;28;20471;-50
2022/09/01 06:43:29;;;;;;;3.30;2.73;;;16.60;99.90;;;;;;5072583;28;20474;-50
2022/09/01 06:45:57;;;;;;;5.47;1.90;;;16.70;99.90;;;;;;5074145;28;20954;-50
2022/09/01 06:48:24;;;;;;;3.07;1.43;;;16.70;99.90;;;;;;5072403;28;20448;-50
2022/09/01 06:50:55;;;;;;;2.87;2.00;;;16.40;99.90;;;;;;5072774;28;20447;-50
2022/09/01 06:53:21;;;;;;;8.70;2.13;;;17.00;99.90;;;;;;5071789;28;20473;-51
2022/09/01 06:55:49;;;;;;;2.33;1.97;;;17.00;99.90;;;;;;5072645;28;20532;-50
2022/09/01 06:58:16;;;;;;;3.20;1.70;;;16.90;99.90;;;;;;5072628;28;20450;-50
2022/09/01 07:00:51;;;;;;;3.30;1.77;;;16.70;99.90;;;;;;5072442;28;20458;-51
2022/09/01 07:03:18;;;;;;;2.37;1.73;;;17.00;99.90;;;;;;5072262;28;20997;-50
2022/09/01 07:05:56;;;;;;;4.60;2.37;;;17.20;99.90;;;;;;5072388;28;20476;-50
2022/09/01 07:08:48;;;;;;;3.63;1.23;;;17.00;99.90;;;;;;5073074;28;20470;-50
2022/09/01 07:11:28;;;;;;;5.20;1.77;;;17.10;99.90;;;;;;5072710;28;20446;-50
2022/09/01 07:13:57;;;;;;;2.33;1.60;;;17.00;99.90;;;;;;5072828;28;20512;-50
2022/09/01 07:16:27;;;;;;;2.60;1.50;;;17.00;99.90;;;;;;5071865;28;20454;-50
2022/09/01 07:18:57;;;;;;;2.10;1.30;;;17.00;99.90;;;;;;5072978;28;20435;-50
2022/09/01 07:21:25;;;;;;;3.50;1.40;;;17.00;99.90;;;;;;5071836;28;20475;-50
2022/09/01 07:23:52;;;;;;;4.97;1.47;;;17.10;99.90;;;;;;5072018;28;20483;-50
2022/09/01 07:26:19;;;;;;;4.07;1.70;;;17.20;99.90;;;;;;5071020;28;20455;-50
2022/09/01 07:28:47;;;;;;;3.83;1.50;;;17.10;99.90;;;;;;5071629;28;20451;-50
2022/09/01 07:31:20;;;;;;;6.03;1.27;;;17.10;99.90;;;;;;5071817;28;20460;-50
2022/09/01 07:33:50;;;;;;;3.70;1.80;;;16.80;99.90;;;;;;5072409;28;20549;-50
2022/09/01 07:36:17;;;;;;;2.60;1.20;;;17.20;99.90;;;;;;5073205;28;20442;-50
2022/09/01 07:38:44;;;;;;;3.47;1.23;;;17.30;99.90;;;;;;5072627;28;20945;-50
2022/09/01 07:41:12;;;;;;;4.10;1.37;;;17.20;99.90;;;;;;5072567;28;20506;-50
2022/09/01 07:44:07;;;;;;;1.40;0.90;;;17.20;99.90;;;;;;5072790;28;20466;-50
2022/09/01 07:47:00;;;;;;;3.13;1.30;;;17.30;99.90;;;;;;5049215;28;20527;-50
2022/09/01 07:49:28;;;;;;;2.77;1.40;;;17.50;99.90;;;;;;5071223;28;20447;-50
2022/09/01 07:51:55;;;;;;;1.93;1.07;;;17.20;99.90;;;;;;5071992;28;20450;-50
2022/09/01 07:54:24;;;;;;;3.10;1.33;;;17.20;99.90;;;;;;5073301;28;20496;-50
2022/09/01 07:56:54;;;;;;;5.10;1.30;;;17.30;99.90;;;;;;5071867;28;20475;-50
2022/09/01 07:59:21;;;;;;;2.90;1.23;;;17.30;99.90;;;;;;5071102;28;20521;-50
2022/09/01 08:02:03;;;;;;;4.13;1.40;;;17.40;99.90;;;;;;5071543;28;20554;-50
2022/09/01 08:04:33;;;;;;;3.37;1.33;;;17.30;99.90;;;;;;5071608;28;20983;-49
2022/09/01 08:07:00;;;;;;;1.80;1.30;;;17.60;99.90;;;;;;5071204;28;20451;-50
2022/09/01 08:09:28;;;;;;;4.20;1.37;;;17.50;99.90;;;;;;5070780;28;20520;-49
2022/09/01 08:11:55;;;;;;;4.60;1.10;;;17.40;99.90;;;;;;5071279;28;20455;-50
2022/09/01 08:14:21;;;;;;;3.43;1.20;;;17.40;99.90;;;;;;5071274;28;20459;-50
2022/09/01 08:16:50;;;;;;;3.13;1.33;;;17.40;99.90;;;;;;5071559;28;20453;-50
2022/09/01 08:19:17;;;;;;;2.63;1.30;;;17.40;99.90;;;;;;5071274;28;20475;-49
2022/09/01 08:22:04;;;;;;;3.63;1.60;;;17.70;99.90;;;;;;5068721;28;20950;-50
2022/09/01 08:24:40;;;;;;;1.43;1.10;;;17.60;99.90;;;;;;5079799;28;20448;-49
2022/09/01 08:27:07;;;;;;;1.73;1.07;;;17.80;99.90;;;;;;5072210;28;20497;-49
2022/09/01 08:29:34;;;;;;;4.10;1.33;;;17.70;99.90;;;;;;5070958;28;20450;-49
2022/09/01 08:32:01;;;;;;;2.40;0.87;;;17.70;99.90;;;;;;5085435;28;20501;-49
2022/09/01 08:34:31;;;;;;;2.20;1.10;;;17.60;99.90;;;;;;5090611;28;20561;-48
2022/09/01 08:36:57;;;;;;;2.17;0.93;;;17.70;99.90;;;;;;5091286;28;20445;-49
2022/09/01 08:39:26;;;;;;;3.07;1.50;;;17.70;99.90;;;;;;5085835;28;20461;-48
2022/09/01 08:41:59;;;;;;;2.90;1.17;;;17.80;99.90;;;;;;5070446;28;20475;-49
2022/09/01 08:44:33;;;;;;;1.67;1.37;;;17.80;99.10;;;;;;5070870;28;20560;-49
2022/09/01 08:47:05;;;;;;;2.93;1.20;;;17.80;98.80;;;;;;5070511;28;20462;-49
2022/09/01 08:49:33;;;;;;;5.23;1.13;;;17.90;98.80;;;;;;5061422;28;20437;-50
2022/09/01 08:52:13;;;;;;;5.70;1.00;;;17.70;98.80;;;;;;5055649;28;20821;-50
2022/09/01 08:54:45;;;;;;;1.37;0.90;;;18.00;99.00;;;;;;5051057;28;20455;-49
2022/09/01 08:57:17;;;;;;;2.70;0.87;;;18.30;98.50;;;;;;5077852;28;21143;-48
2022/09/01 09:00:06;;;;;;;9.13;1.33;;;18.10;98.30;;;;;;5071002;28;20951;-50
2022/09/01 09:02:40;;;;;;;4.80;1.40;;;18.10;98.70;;;;;;5071079;28;20482;-49
2022/09/01 09:05:30;;;;;;;4.93;1.33;;;18.10;98.60;;;;;;5071512;28;20452;-48
2022/09/01 09:08:09;;;;;;;3.30;1.40;;;18.30;98.70;;;;;;5071361;28;20421;-49
2022/09/01 09:10:48;;;;;;;4.17;1.07;;;18.10;98.00;;;;;;5071058;28;20443;-49
2022/09/01 09:13:24;;;;;;;2.53;1.40;;;18.30;97.50;;;;;;5071639;28;20484;-48
2022/09/01 09:15:56;;;;;;;3.30;1.37;;;18.30;97.70;;;;;;5070308;28;20452;-49
2022/09/01 09:18:29;;;;;;;3.87;0.90;;;18.30;98.20;;;;;;5070958;28;20894;-49
2022/09/01 09:21:03;;;;;;;1.63;1.00;;;18.30;97.70;;;;;;5071644;28;20443;-48
2022/09/01 09:23:36;;;;;;;2.93;1.33;;;18.50;97.70;;;;;;5066942;28;20503;-49
2022/09/01 09:26:04;;;;;;;1.30;0.97;;;18.50;97.90;;;;;;5051600;28;20448;-49
2022/09/01 09:28:30;;;;;;;3.57;1.47;;;18.50;97.50;;;;;;5051078;28;20767;-48
2022/09/01 09:31:31;;;;;;;2.03;1.47;;;18.50;97.30;;;;;;5055041;28;20499;-49
2022/09/01 09:33:58;;;;;;;1.67;0.90;;;18.60;96.90;;;;;;5071437;28;20454;-49
2022/09/01 09:36:32;;;;;;;1.50;1.00;;;18.60;96.60;;;;;;5071993;28;20441;-49
2022/09/01 09:39:09;;;;;;;8.33;1.27;;;18.60;96.40;;;;;;5070679;28;20424;-49
2022/09/01 09:41:37;;;;;;;3.73;1.20;;;18.80;95.90;;;;;;5070853;28;20771;-49
2022/09/01 09:44:16;;;;;;;2.07;0.73;;;18.80;95.70;;;;;;5071233;28;20802;-49
2022/09/01 09:46:46;;;;;;;2.60;1.73;;;18.90;95.40;;;;;;5071011;28;20447;-49
2022/09/01 09:49:18;;;;;;;4.30;0.87;;;18.90;95.30;;;;;;5071079;28;20443;-49
2022/09/01 09:51:48;;;;;;;2.73;0.90;;;19.00;95.00;;;;;;5071529;28;20433;-49
2022/09/01 09:54:19;;;;;;;3.70;1.00;;;19.10;94.30;;;;;;5070930;28;20457;-50
2022/09/01 09:56:49;;;;;;;2.20;1.10;;;19.20;94.00;;;;;;5070926;28;20456;-50
2022/09/01 09:59:27;;;;;;;2.30;0.80;;;19.20;93.70;;;;;;5054709;28;20810;-50
2022/09/01 10:01:58;;;;;;;1.67;0.90;;;19.30;93.40;;;;;;5050703;28;20485;-50
2022/09/01 10:04:34;;;;;;;1.70;0.77;;;19.30;93.30;;;;;;5063147;28;20465;-49
2022/09/01 10:07:01;;;;;;;2.43;1.00;;;18.80;92.30;;;;;;5070912;28;20436;-49
2022/09/01 10:09:37;;;;;;;2.63;0.90;;;19.30;92.80;;;;;;5070611;28;20433;-50
2022/09/01 10:12:05;;;;;;;1.70;0.87;;;19.20;92.00;;;;;;5069001;28;21280;-50
2022/09/01 10:14:38;;;;;;;1.70;0.80;;;19.50;92.20;;;;;;5062197;28;20474;-50
2022/09/01 10:17:12;;;;;;;1.50;0.70;;;19.50;91.10;;;;;;5073655;28;20440;-50
2022/09/01 10:19:53;;;;;;;1.20;0.70;;;19.40;90.30;;;;;;5074560;28;20433;-50
2022/09/01 10:22:21;;;;;;;1.30;0.70;;;19.60;90.60;;;;;;5074256;28;20481;-50
2022/09/01 10:24:48;;;;;;;2.93;1.33;;;19.40;90.20;;;;;;5075378;28;20875;-53
2022/09/01 10:27:20;;;;;;;3.70;1.13;;;19.60;90.20;;;;;;5074365;28;20434;-52
2022/09/01 10:29:51;;;;;;;3.20;0.83;;;19.60;90.40;;;;;;5074167;28;20429;-53
2022/09/01 10:32:22;;;;;;;3.40;1.10;;;19.70;90.30;;;;;;5072793;28;21064;-54
2022/09/01 10:34:49;;;;;;;1.43;0.70;;;19.80;89.50;;;;;;5073242;28;20746;-52
2022/09/01 10:37:16;;;;;;;3.43;1.00;;;19.80;88.30;;;;;;5074861;28;20429;-51
2022/09/01 10:40:15;;;;;;;1.27;0.70;;;19.90;88.70;;;;;;5072922;28;20955;-53
2022/09/01 10:42:46;;;;;;;2.07;1.33;;;20.00;87.70;;;;;;5073924;28;20482;-53
2022/09/01 10:45:21;;;;;;;3.43;0.90;;;20.10;87.40;;;;;;5074257;28;20827;-51
2022/09/01 10:47:48;;;;;;;2.80;0.93;;;20.30;86.50;;;;;;5073775;28;20529;-50
2022/09/01 10:50:28;;;;;;;3.30;0.87;;;20.70;86.20;;;;;;5073546;28;20433;-49
2022/09/01 10:53:00;;;;;;;1.83;0.80;;;20.70;86.00;;;;;;5073849;28;20460;-49
2022/09/01 10:55:59;;;;;;;3.00;1.10;;;20.60;85.00;;;;;;5074072;28;20482;-49
2022/09/01 10:58:42;;;;;;;1.33;0.80;;;20.60;83.00;;;;;;5073774;28;20415;-49
2022/09/01 11:01:09;;;;;;;2.87;0.70;;;20.70;83.40;;;;;;5073826;28;20444;-53
2022/09/01 11:03:54;;;;;;;1.50;0.80;;;20.70;83.40;;;;;;5073929;28;20483;-49
2022/09/01 11:07:07;;;;;;;2.97;1.00;;;20.70;81.50;;;;;;5074093;28;20436;-50
2022/09/01 11:09:37;;;;;;;1.30;0.70;;;20.80;81.00;;;;;;5073480;28;20431;-49
2022/09/01 11:12:39;;;;;;;2.00;1.00;;;20.70;81.80;;;;;;5073378;28;20431;-49
2022/09/01 11:15:35;;;;;;;2.30;0.90;;;20.60;80.90;;;;;;5073426;28;20430;-50
2022/09/01 11:18:07;;;;;;;4.50;1.00;;;20.60;79.20;;;;;;5073545;28;20802;-50
2022/09/01 11:20:36;;;;;;;2.03;0.73;;;20.60;81.00;;;;;;5073143;28;20436;-49
2022/09/01 11:23:05;;;;;;;3.20;1.07;;;20.50;80.30;;;;;;5071093;28;20978;-52
2022/09/01 11:25:40;;;;;;;1.90;0.90;;;20.60;80.20;;;;;;5068509;28;20463;-51
2022/09/01 11:28:35;;;;;;;1.57;0.70;;;20.40;79.50;;;;;;5053076;28;20439;-52
2022/09/01 11:31:17;;;;;;;1.10;0.70;;;20.60;78.50;;;;;;5060896;28;20939;-51
2022/09/01 11:33:52;;;;;;;4.90;0.90;;;20.70;76.40;;;;;;5073136;28;20460;-52
2022/09/01 11:36:27;;;;;;;3.13;1.10;;;20.90;76.60;;;;;;5072505;28;20958;-51
2022/09/01 11:38:59;;;;;;;3.27;0.90;;;21.20;75.70;;;;;;5072683;28;20444;-52
2022/09/01 11:41:32;;;;;;;1.23;0.63;;;21.20;74.80;;;;;;5072818;28;20426;-52
2022/09/01 11:44:01;;;;;;;1.50;0.80;;;21.60;74.50;;;;;;5072873;28;20476;-52
2022/09/01 11:46:33;;;;;;;1.60;0.80;;;21.50;71.30;;;;;;5073033;28;20429;-52
2022/09/01 11:49:05;;;;;;;2.97;0.90;;;21.50;69.70;;;;;;5072502;28;20448;-52
2022/09/01 11:51:42;;;;;;;1.40;0.70;;;21.40;69.70;;;;;;5072480;28;20949;-52
2022/09/01 11:54:09;;;;;;;1.10;0.77;;;21.50;70.10;;;;;;5073110;28;20457;-51
2022/09/01 11:56:36;;;;;;;2.67;1.00;;;21.50;70.80;;;;;;5072938;28;20441;-52
2022/09/01 11:59:03;;;;;;;2.30;0.60;;;21.20;71.10;;;;;;5071135;28;20445;-51
2022/09/01 12:01:34;;;;;;;1.60;0.80;;;21.40;71.30;;;;;;5072678;28;20429;-51
2022/09/01 12:04:21;;;;;;;1.70;1.00;;;21.40;71.50;;;;;;5072515;28;20487;-51
2022/09/01 12:06:53;;;;;;;2.03;1.00;;;21.50;69.80;;;;;;5073198;28;20522;-51
2022/09/01 12:09:19;;;;;;;2.40;0.83;;;21.40;70.20;;;;;;5072237;28;20440;-51
2022/09/01 12:11:47;;;;;;;5.07;1.37;;;21.40;71.50;;;;;;5072028;28;20455;-52
2022/09/01 12:14:21;;;;;;;2.43;1.10;;;21.40;73.70;;;;;;5072154;28;20454;-52
2022/09/01 12:17:00;;;;;;;3.20;0.80;;;21.40;75.20;;;;;;5070840;28;20457;-51
2022/09/01 12:19:30;;;;;;;5.77;0.80;;;21.20;75.60;;;;;;5071465;28;20426;-51
2022/09/01 12:22:00;;;;;;;3.20;1.00;;;21.40;76.80;;;;;;5072327;28;20444;-51
2022/09/01 12:24:31;;;;;;;2.00;0.80;;;21.40;77.50;;;;;;5071149;28;20488;-51
2022/09/01 12:26:57;;;;;;;2.00;1.00;;;21.40;77.60;;;;;;5070510;28;20453;-52
2022/09/01 12:29:25;;;;;;;3.07;1.17;;;21.50;77.80;;;;;;5070330;28;20441;-51
2022/09/01 12:31:52;;;;;;;1.60;0.90;;;21.30;77.30;;;;;;5071992;28;20452;-52
2022/09/01 12:34:36;;;;;;;2.57;1.40;;;21.40;77.80;;;;;;5071320;28;20966;-51
2022/09/01 12:37:06;;;;;;;2.90;1.50;;;21.30;77.20;;;;;;5071732;28;20751;-52
2022/09/01 12:39:34;;;;;;;1.20;0.70;;;21.30;77.50;;;;;;5070083;28;20534;-50
2022/09/01 12:42:06;;;;;;;2.37;0.80;;;21.10;77.30;;;;;;5071623;28;20441;-51
2022/09/01 12:44:34;;;;;;;4.80;1.30;;;21.10;77.80;;;;;;5071643;28;20477;-51
2022/09/01 12:47:05;;;;;;;4.07;0.80;;;21.00;78.10;;;;;;5071935;28;20804;-52
2022/09/01 12:49:38;;;;;;;2.03;0.60;;;21.00;78.20;;;;;;5071375;28;20444;-51
2022/09/01 12:52:24;;;;;;;2.20;1.13;;;21.00;78.40;;;;;;5071617;28;21001;-51
2022/09/01 12:54:53;;;;;;;1.80;0.70;;;21.00;77.70;;;;;;5071171;28;20445;-51
2022/09/01 12:57:27;;;;;;;2.37;0.73;;;21.10;78.10;;;;;;5070637;28;20428;-51
2022/09/01 13:00:16;;;;;;;1.97;0.90;;;21.30;77.20;;;;;;5071031;28;20441;-51
2022/09/01 13:02:46;;;;;;;2.07;0.80;;;21.00;75.70;;;;;;5071257;28;20456;-50
2022/09/01 13:05:27;;;;;;;1.70;0.70;;;21.40;76.60;;;;;;5071837;28;20464;-50
2022/09/01 13:07:55;;;;;;;3.73;1.20;;;21.60;75.10;;;;;;5071440;28;20446;-50
2022/09/01 13:10:23;;;;;;;1.73;0.60;;;21.50;75.50;;;;;;5070332;28;20470;-51